Cedar City Regional Airport Cedar City US
ICAO: KCDC
IATA: CDC
Category: Medium
Scheduled Services: Yes

Elevation: 5622 ft
TransAlt. 18000 ft.

Airport Communications:
ASOS:119.025
CTAF:123.6
RDO:122.2
UNICOM:122.95

KCDC Zoom In..

If Map Doesn't Load, Click Here

Runways:

(A) RW 02 length 8653 ft width 150 ft
---- / hdg 20

(B) RW 08 length 4822 ft width 60 ft
---- / hdg 83

(C) RW 20 length 8653 ft width 150 ft
ILS 110.10 / hdg 200

(D) RW 26 length 4822 ft width 60 ft
---- / hdg 263

Location; KCDC
Day. 23 / Time. 21.53 Zulu
* Altimeter: 30.03
* Temperature: 28° c. 82.4°f.
* Wind from: 210° Speed 18 kn with Gusts up to 28 kn.
Dewpoint: 01° c.
Visibility: 10 Statute Miles.
Clouds: Scattered 11000 ft.

KCDC 232153Z AUTO 21018G28KT 10SM SCT110 28/01 A3003 RMK AO2 PK WND 20028/2116 SLP092 T02780011


Wind From 210°
Speed 18 kn.

 
 
jpsmedia.com for Web Design worldairports.se 2018   terms of use